Time;durP1;ratioP1;P1;durP2;ratioP2;P2;SDS_P1;SDS_P2;PMS_P1;PMS_P2;Temp;Humidity;BMP_temperature;BMP_pressure;BME280_temperature;BME280_humidity;BME280_pressure;Samples;Min_cycle;Max_cycle;Signal;HPM_P1;HPM_P2
2021/01/10 00:00:45;;;;;;;36.33;20.48;;;22.50;30.90;;;;;;6099175;28;83535;-61
2021/01/10 00:03:46;;;;;;;34.22;19.75;;;22.50;30.80;;;;;;6102249;28;83647;-61
2021/01/10 00:06:46;;;;;;;38.53;20.08;;;22.50;30.70;;;;;;6100698;28;86909;-60
2021/01/10 00:09:47;;;;;;;35.55;19.92;;;22.50;30.70;;;;;;6097300;28;86744;-60
2021/01/10 00:12:47;;;;;;;39.45;21.70;;;22.50;30.60;;;;;;6091855;28;83535;-60
2021/01/10 00:15:48;;;;;;;36.08;19.15;;;22.50;30.70;;;;;;6101755;28;83250;-60
2021/01/10 00:18:48;;;;;;;34.85;19.40;;;22.50;30.60;;;;;;6096787;28;83511;-62
2021/01/10 00:21:49;;;;;;;37.05;19.77;;;22.50;30.70;;;;;;6101426;28;82958;-61
2021/01/10 00:24:49;;;;;;;35.13;19.05;;;22.50;30.70;;;;;;6092647;28;83043;-62
2021/01/10 00:27:50;;;;;;;40.60;20.25;;;22.50;31.00;;;;;;6098150;28;90402;-61
2021/01/10 00:30:50;;;;;;;32.08;18.33;;;22.40;31.00;;;;;;6095767;28;83674;-62
2021/01/10 00:33:51;;;;;;;40.50;20.10;;;22.40;31.00;;;;;;6089857;28;83831;-59
2021/01/10 00:36:51;;;;;;;37.40;19.83;;;22.40;31.10;;;;;;6101848;28;82955;-61
2021/01/10 00:39:52;;;;;;;40.78;21.23;;;22.40;31.20;;;;;;6099442;28;84163;-61
2021/01/10 00:42:52;;;;;;;37.53;20.63;;;22.40;31.10;;;;;;6096118;28;83565;-61
2021/01/10 00:45:53;;;;;;;38.85;20.50;;;22.40;30.90;;;;;;6099158;28;85171;-61
2021/01/10 00:48:53;;;;;;;35.47;20.02;;;22.40;30.90;;;;;;6093437;28;83588;-60
2021/01/10 00:51:54;;;;;;;36.85;20.60;;;22.40;30.90;;;;;;6111451;28;85859;-61
2021/01/10 00:54:55;;;;;;;41.42;21.67;;;22.40;31.00;;;;;;6094246;28;85877;-61
2021/01/10 00:57:56;;;;;;;40.08;21.48;;;22.30;30.80;;;;;;6110170;28;84083;-61
2021/01/10 01:01:00;;;;;;;39.13;20.60;;;22.30;30.90;;;;;;6100462;28;85905;-61
2021/01/10 01:04:00;;;;;;;36.10;19.90;;;22.30;31.00;;;;;;6114226;28;85954;-61
2021/01/10 01:07:02;;;;;;;38.55;20.88;;;22.30;31.00;;;;;;6091753;28;85941;-61
2021/01/10 01:10:03;;;;;;;45.63;22.33;;;22.30;30.70;;;;;;6115318;28;85369;-61
2021/01/10 01:13:04;;;;;;;39.60;21.90;;;22.30;31.00;;;;;;6098507;28;84461;-60
2021/01/10 01:16:04;;;;;;;40.75;21.63;;;22.30;30.80;;;;;;6096210;28;85443;-61
2021/01/10 01:19:05;;;;;;;42.70;21.52;;;22.30;31.00;;;;;;6114643;28;83638;-60
2021/01/10 01:22:05;;;;;;;45.22;22.45;;;22.30;30.90;;;;;;6100123;28;83486;-60
2021/01/10 01:25:06;;;;;;;46.15;22.75;;;22.30;30.80;;;;;;6093467;28;83246;-61
2021/01/10 01:28:06;;;;;;;40.80;22.08;;;22.30;30.80;;;;;;6096332;28;83771;-64
2021/01/10 01:31:07;;;;;;;40.10;21.83;;;22.30;30.80;;;;;;6096256;28;83342;-61
2021/01/10 01:34:07;;;;;;;39.65;21.45;;;22.30;30.90;;;;;;6098730;28;83307;-61
2021/01/10 01:37:08;;;;;;;42.72;22.02;;;22.30;31.00;;;;;;6087847;28;83363;-61
2021/01/10 01:40:08;;;;;;;44.35;22.05;;;22.30;31.00;;;;;;6099147;28;83692;-61
2021/01/10 01:43:09;;;;;;;41.63;22.23;;;22.30;30.80;;;;;;6101057;28;83972;-60
2021/01/10 01:46:09;;;;;;;43.17;22.50;;;22.20;30.70;;;;;;6096100;28;82954;-60
2021/01/10 01:49:10;;;;;;;41.22;23.80;;;22.20;30.50;;;;;;6097520;28;83150;-61
2021/01/10 01:52:10;;;;;;;43.25;22.20;;;22.20;30.70;;;;;;6092593;28;84897;-60
2021/01/10 01:55:11;;;;;;;44.58;22.05;;;22.20;30.80;;;;;;6096235;28;83837;-61
2021/01/10 01:58:11;;;;;;;41.90;22.33;;;22.20;31.30;;;;;;6095035;28;84217;-61
2021/01/10 02:01:12;;;;;;;43.65;22.65;;;22.20;31.70;;;;;;6092301;28;83438;-60
2021/01/10 02:04:12;;;;;;;44.95;23.70;;;22.20;30.90;;;;;;6096796;28;83589;-60
2021/01/10 02:07:13;;;;;;;41.38;22.98;;;22.20;30.90;;;;;;6102012;28;84770;-61
2021/01/10 02:10:13;;;;;;;42.70;22.48;;;22.20;31.00;;;;;;6097476;28;83500;-60
2021/01/10 02:13:14;;;;;;;45.35;22.20;;;22.20;31.10;;;;;;6092821;28;83178;-61
2021/01/10 02:16:15;;;;;;;42.85;22.52;;;22.20;31.00;;;;;;6098590;28;83374;-61
2021/01/10 02:19:15;;;;;;;42.00;22.50;;;22.20;31.00;;;;;;6091995;28;83787;-61
2021/01/10 02:22:16;;;;;;;44.42;23.05;;;22.20;30.80;;;;;;6097084;28;84031;-61
2021/01/10 02:25:16;;;;;;;40.67;22.00;;;22.20;30.60;;;;;;6097243;28;83307;-60
2021/01/10 02:28:17;;;;;;;46.65;21.58;;;22.20;30.60;;;;;;6102682;28;83929;-61
2021/01/10 02:31:17;;;;;;;42.90;22.52;;;22.20;30.80;;;;;;6105266;28;83182;-61
2021/01/10 02:34:18;;;;;;;45.33;22.55;;;22.20;30.90;;;;;;6105231;28;83592;-62
2021/01/10 02:37:18;;;;;;;43.58;23.20;;;22.20;31.00;;;;;;6106943;28;83188;-61
2021/01/10 02:40:18;;;;;;;42.75;22.92;;;22.20;31.00;;;;;;6100646;28;83902;-61
2021/01/10 02:43:19;;;;;;;44.95;23.92;;;22.20;31.10;;;;;;6092223;28;83517;-61
2021/01/10 02:46:19;;;;;;;50.00;23.65;;;22.20;31.10;;;;;;6091138;28;85918;-61
2021/01/10 02:49:20;;;;;;;50.67;24.05;;;22.20;31.00;;;;;;6099093;28;85216;-61
2021/01/10 02:52:20;;;;;;;43.17;23.90;;;22.20;31.30;;;;;;6105669;28;84054;-60
2021/01/10 02:55:21;;;;;;;44.28;23.88;;;22.20;31.50;;;;;;6098779;28;83515;-61
2021/01/10 02:58:21;;;;;;;41.90;21.98;;;22.20;31.30;;;;;;6103311;28;83654;-61
2021/01/10 03:01:22;;;;;;;47.08;23.98;;;22.20;31.60;;;;;;6105121;28;83411;-61
2021/01/10 03:04:23;;;;;;;44.33;24.50;;;22.20;31.30;;;;;;6104829;28;83447;-61
2021/01/10 03:07:23;;;;;;;41.70;23.08;;;22.20;31.30;;;;;;6102998;28;84165;-61
2021/01/10 03:10:24;;;;;;;49.58;24.77;;;22.10;31.20;;;;;;6105571;28;86305;-61
2021/01/10 03:13:24;;;;;;;47.15;23.73;;;22.20;31.30;;;;;;6092175;28;83195;-61
2021/01/10 03:16:25;;;;;;;46.60;24.13;;;22.10;31.30;;;;;;6094403;28;84167;-61
2021/01/10 03:19:25;;;;;;;45.22;24.08;;;22.20;31.10;;;;;;6105808;28;84206;-61
2021/01/10 03:22:26;;;;;;;47.40;24.58;;;22.20;31.30;;;;;;6103981;28;83386;-61
2021/01/10 03:25:26;;;;;;;44.13;22.35;;;22.20;31.30;;;;;;6093472;28;84324;-61
2021/01/10 03:28:27;;;;;;;45.53;23.95;;;22.20;31.30;;;;;;6093350;28;86197;-61
2021/01/10 03:31:27;;;;;;;48.67;24.02;;;22.20;31.60;;;;;;6102082;28;83621;-61
2021/01/10 03:34:28;;;;;;;46.08;24.40;;;22.10;31.60;;;;;;6104113;28;85142;-61
2021/01/10 03:37:28;;;;;;;44.13;23.95;;;22.20;31.50;;;;;;6104956;28;83581;-61
2021/01/10 03:40:29;;;;;;;46.85;23.65;;;22.10;31.30;;;;;;6118808;28;83804;-61
2021/01/10 03:43:29;;;;;;;46.65;24.27;;;22.10;31.20;;;;;;6092260;28;82810;-62
2021/01/10 03:46:30;;;;;;;46.00;25.38;;;22.10;31.20;;;;;;6100781;28;83786;-61
2021/01/10 03:49:30;;;;;;;48.83;24.15;;;22.10;31.20;;;;;;6093439;28;84147;-62
2021/01/10 03:52:31;;;;;;;47.92;24.48;;;22.10;31.60;;;;;;6098754;28;83893;-63
2021/01/10 03:55:31;;;;;;;45.45;23.40;;;22.10;31.40;;;;;;6092870;28;83372;-60
2021/01/10 03:58:32;;;;;;;49.42;24.00;;;22.10;31.30;;;;;;6101356;28;83496;-61
2021/01/10 04:01:32;;;;;;;44.78;23.35;;;22.10;31.50;;;;;;6103778;28;83336;-60
2021/01/10 04:04:33;;;;;;;51.03;25.70;;;22.10;31.40;;;;;;6096261;28;84485;-61
2021/01/10 04:07:33;;;;;;;45.70;23.60;;;22.10;31.50;;;;;;6101978;28;83003;-61
2021/01/10 04:10:34;;;;;;;47.30;24.20;;;22.10;31.20;;;;;;6100176;28;84471;-61
2021/01/10 04:13:34;;;;;;;46.05;23.92;;;22.10;31.40;;;;;;6097069;28;82945;-62
2021/01/10 04:16:35;;;;;;;47.67;22.52;;;22.10;31.30;;;;;;6092369;28;83902;-61
2021/01/10 04:19:35;;;;;;;40.67;21.67;;;22.10;31.20;;;;;;6096306;28;83245;-61
2021/01/10 04:22:36;;;;;;;46.03;23.90;;;22.10;31.20;;;;;;6089769;28;83744;-62
2021/01/10 04:25:37;;;;;;;44.53;23.23;;;22.10;31.30;;;;;;6088251;28;82754;-62
2021/01/10 04:28:37;;;;;;;42.63;22.73;;;22.10;31.10;;;;;;6090471;28;83664;-61
2021/01/10 04:31:38;;;;;;;41.08;21.35;;;22.10;31.00;;;;;;6096955;28;83749;-60
2021/01/10 04:34:40;;;;;;;44.55;22.30;;;22.10;31.00;;;;;;6084185;28;84168;-60
2021/01/10 04:37:40;;;;;;;43.67;21.67;;;22.10;30.70;;;;;;6094128;28;85292;-61
2021/01/10 04:40:41;;;;;;;40.78;21.52;;;22.10;31.00;;;;;;6087678;28;83736;-60
2021/01/10 04:43:41;;;;;;;40.83;21.48;;;22.10;31.00;;;;;;6089146;28;83573;-60
2021/01/10 04:46:42;;;;;;;38.75;21.20;;;22.00;31.50;;;;;;6090527;28;83758;-60
2021/01/10 04:49:42;;;;;;;40.38;21.15;;;22.00;31.50;;;;;;6088164;28;84189;-61
2021/01/10 04:52:43;;;;;;;42.58;21.25;;;22.10;32.10;;;;;;6096341;28;83360;-61
2021/01/10 04:55:44;;;;;;;39.65;20.80;;;22.00;31.90;;;;;;6097563;28;84491;-60
2021/01/10 04:58:44;;;;;;;40.97;20.60;;;22.10;32.50;;;;;;6096008;28;82988;-60
2021/01/10 05:01:45;;;;;;;39.60;20.35;;;22.10;32.60;;;;;;6100279;28;85500;-59
2021/01/10 05:04:46;;;;;;;36.45;19.33;;;22.10;32.30;;;;;;6098841;28;83875;-60
2021/01/10 05:07:46;;;;;;;36.92;19.23;;;22.00;32.40;;;;;;6100981;28;83498;-60
2021/01/10 05:10:47;;;;;;;34.05;18.48;;;22.10;32.70;;;;;;6098124;28;83413;-60
2021/01/10 05:13:47;;;;;;;38.95;19.08;;;22.10;32.90;;;;;;6100337;28;83414;-60
2021/01/10 05:16:48;;;;;;;35.70;18.00;;;22.20;32.40;;;;;;6090042;28;83517;-60
2021/01/10 05:19:48;;;;;;;36.22;17.58;;;22.30;32.10;;;;;;6093020;28;82832;-60
2021/01/10 05:22:49;;;;;;;38.60;19.33;;;22.30;31.70;;;;;;6094962;28;84529;-60
2021/01/10 05:25:50;;;;;;;33.85;17.92;;;22.30;31.50;;;;;;6098966;28;83273;-61
2021/01/10 05:28:50;;;;;;;34.03;18.83;;;22.30;31.30;;;;;;6088688;28;82989;-60
2021/01/10 05:31:51;;;;;;;37.35;19.85;;;22.40;30.90;;;;;;6098731;28;83525;-61
2021/01/10 05:34:51;;;;;;;34.58;18.92;;;22.40;30.50;;;;;;6096716;28;83030;-60
2021/01/10 05:37:52;;;;;;;38.42;18.83;;;22.40;30.50;;;;;;6094823;28;84344;-59
2021/01/10 05:40:52;;;;;;;35.38;19.40;;;22.40;30.40;;;;;;6097539;28;83244;-60
2021/01/10 05:43:53;;;;;;;36.67;18.27;;;22.40;30.20;;;;;;6099251;28;83941;-61
2021/01/10 05:46:53;;;;;;;33.60;17.00;;;22.50;30.30;;;;;;6096034;28;83617;-62
2021/01/10 05:49:54;;;;;;;30.77;16.45;;;22.50;31.40;;;;;;6092462;28;84080;-60
2021/01/10 05:52:54;;;;;;;31.27;17.13;;;22.50;31.40;;;;;;6093271;28;83162;-60
2021/01/10 05:55:55;;;;;;;30.33;16.63;;;22.50;31.00;;;;;;6090007;28;84668;-60
2021/01/10 05:58:56;;;;;;;32.08;16.58;;;22.60;33.10;;;;;;6097325;28;84061;-66
2021/01/10 06:01:56;;;;;;;29.00;15.93;;;22.60;32.00;;;;;;6115093;28;85795;-60
2021/01/10 06:04:57;;;;;;;33.92;16.88;;;22.60;31.20;;;;;;6098683;28;83166;-61
2021/01/10 06:07:57;;;;;;;25.45;13.60;;;22.70;30.50;;;;;;6089485;28;84052;-67
2021/01/10 06:10:58;;;;;;;21.90;11.80;;;22.60;32.80;;;;;;6098417;28;83848;-61
2021/01/10 06:13:58;;;;;;;23.48;11.60;;;22.60;32.40;;;;;;6073716;28;84939;-60
2021/01/10 06:16:59;;;;;;;19.95;10.18;;;22.70;34.20;;;;;;6104918;28;84195;-62
2021/01/10 06:19:59;;;;;;;17.88;9.18;;;22.70;34.80;;;;;;6097126;28;83611;-61
2021/01/10 06:23:00;;;;;;;18.20;9.27;;;22.70;35.20;;;;;;6104215;28;83027;-61
2021/01/10 06:26:00;;;;;;;15.32;8.15;;;22.70;35.30;;;;;;6093778;28;80726;-61
2021/01/10 06:29:01;;;;;;;18.73;8.27;;;22.70;35.70;;;;;;6103990;28;84170;-60
2021/01/10 06:32:01;;;;;;;15.05;7.40;;;22.70;36.80;;;;;;6090707;28;80426;-61
2021/01/10 06:35:02;;;;;;;12.40;7.35;;;22.80;37.00;;;;;;6103282;28;81686;-61
2021/01/10 06:38:02;;;;;;;13.68;7.10;;;22.80;37.20;;;;;;6095412;28;80603;-61
2021/01/10 06:41:03;;;;;;;13.13;7.18;;;22.70;37.70;;;;;;6101372;28;81070;-61
2021/01/10 06:44:03;;;;;;;12.48;6.10;;;22.70;37.80;;;;;;6091867;28;81339;-61
2021/01/10 06:47:04;;;;;;;12.07;6.85;;;22.70;38.60;;;;;;6103156;28;80836;-61
2021/01/10 06:50:04;;;;;;;13.52;6.15;;;22.80;38.30;;;;;;6099846;28;80303;-61
2021/01/10 06:53:05;;;;;;;14.70;7.63;;;22.70;38.10;;;;;;6095350;28;80775;-61
2021/01/10 06:56:05;;;;;;;14.50;6.60;;;22.80;38.50;;;;;;6099886;28;81417;-61
2021/01/10 06:59:06;;;;;;;12.93;7.20;;;22.80;38.60;;;;;;6088489;28;81655;-61
2021/01/10 07:02:07;;;;;;;16.75;8.32;;;22.80;38.80;;;;;;6094414;28;80840;-62
2021/01/10 07:05:07;;;;;;;21.45;9.27;;;22.90;38.70;;;;;;6099251;28;80604;-62
2021/01/10 07:08:08;;;;;;;20.73;10.38;;;22.90;38.10;;;;;;6106562;28;83394;-62
2021/01/10 07:11:08;;;;;;;21.98;11.43;;;23.00;37.40;;;;;;6096371;28;86219;-62
2021/01/10 07:14:09;;;;;;;20.73;12.10;;;23.10;37.40;;;;;;6099716;28;83643;-62
2021/01/10 07:17:09;;;;;;;22.90;12.82;;;23.20;37.00;;;;;;6091980;28;83008;-61
2021/01/10 07:20:10;;;;;;;24.58;13.38;;;23.20;36.80;;;;;;6099901;28;83147;-61
2021/01/10 07:23:10;;;;;;;29.88;15.25;;;23.30;36.80;;;;;;6101103;28;83425;-61
2021/01/10 07:26:11;;;;;;;28.08;15.07;;;23.30;36.80;;;;;;6089871;28;84998;-61
2021/01/10 07:29:11;;;;;;;27.88;14.20;;;23.30;36.30;;;;;;6101949;28;82979;-62
2021/01/10 07:32:12;;;;;;;26.88;14.90;;;23.30;35.80;;;;;;6101995;28;83374;-61
2021/01/10 07:35:13;;;;;;;31.38;14.85;;;23.40;35.70;;;;;;6102076;28;83517;-61
2021/01/10 07:38:13;;;;;;;25.85;14.10;;;23.40;35.40;;;;;;6096384;28;83244;-61
2021/01/10 07:41:14;;;;;;;29.42;14.38;;;23.40;35.00;;;;;;6099481;28;83954;-61
2021/01/10 07:44:17;;;;;;;26.30;13.57;;;23.40;34.80;;;;;;6102276;28;82834;-61
2021/01/10 07:47:18;;;;;;;26.92;13.40;;;23.30;34.90;;;;;;6101109;28;83460;-61
2021/01/10 07:50:19;;;;;;;27.25;13.95;;;23.30;34.70;;;;;;6075998;28;83232;-61
2021/01/10 07:53:19;;;;;;;30.00;15.75;;;23.30;33.30;;;;;;6113900;28;83072;-61
2021/01/10 07:56:20;;;;;;;24.55;13.95;;;23.30;32.70;;;;;;6097324;28;83279;-68
2021/01/10 07:59:21;;;;;;;31.27;14.45;;;23.30;32.80;;;;;;6099272;28;82978;-61
2021/01/10 08:02:21;;;;;;;29.67;14.50;;;23.30;32.50;;;;;;6095116;28;84604;-60
2021/01/10 08:05:22;;;;;;;26.98;13.50;;;23.40;32.60;;;;;;6099490;28;83294;-61
2021/01/10 08:08:23;;;;;;;24.25;12.77;;;23.40;32.60;;;;;;6088033;28;85809;-60
2021/01/10 08:11:23;;;;;;;25.83;14.68;;;23.50;33.00;;;;;;6100756;28;83330;-60
2021/01/10 08:14:24;;;;;;;29.63;14.77;;;23.50;32.90;;;;;;6099734;28;86985;-61
2021/01/10 08:17:24;;;;;;;30.85;14.95;;;23.60;33.40;;;;;;6101043;28;83337;-65
2021/01/10 08:20:25;;;;;;;31.02;14.30;;;23.60;33.00;;;;;;6093428;28;91890;-60
2021/01/10 08:23:25;;;;;;;25.05;13.85;;;23.60;32.90;;;;;;6101166;28;83787;-61
2021/01/10 08:26:26;;;;;;;30.42;15.82;;;23.60;32.20;;;;;;6099415;28;83508;-60
2021/01/10 08:29:26;;;;;;;27.88;15.32;;;23.60;32.00;;;;;;6095764;28;83435;-59
2021/01/10 08:32:27;;;;;;;25.85;13.57;;;23.70;31.40;;;;;;6100662;28;84086;-59
2021/01/10 08:35:27;;;;;;;30.08;13.88;;;23.60;31.40;;;;;;6096559;28;83323;-62
2021/01/10 08:38:28;;;;;;;29.75;13.90;;;23.70;32.80;;;;;;6116932;28;85545;-62
2021/01/10 08:41:28;;;;;;;44.10;14.15;;;23.80;32.80;;;;;;6099733;28;83050;-63
2021/01/10 08:44:29;;;;;;;37.10;14.30;;;23.80;32.20;;;;;;6101134;28;84263;-61
2021/01/10 08:47:29;;;;;;;33.83;13.07;;;23.80;32.40;;;;;;6099059;28;85733;-62
2021/01/10 08:50:30;;;;;;;23.80;12.55;;;23.90;32.50;;;;;;6099208;28;84385;-61
2021/01/10 08:53:31;;;;;;;23.67;12.73;;;23.90;32.20;;;;;;6110427;28;83859;-62
2021/01/10 08:56:31;;;;;;;22.92;11.50;;;24.00;32.20;;;;;;6113211;28;84512;-62
2021/01/10 08:59:32;;;;;;;29.27;12.90;;;24.00;32.60;;;;;;6096368;28;83656;-62
2021/01/10 09:02:32;;;;;;;27.73;12.60;;;24.00;33.60;;;;;;6091704;28;83202;-62
2021/01/10 09:05:33;;;;;;;26.20;12.45;;;24.10;33.00;;;;;;6093877;28;83309;-62
2021/01/10 09:08:34;;;;;;;22.17;11.15;;;24.10;33.20;;;;;;6098814;28;84636;-61
2021/01/10 09:11:34;;;;;;;23.88;13.18;;;24.10;33.50;;;;;;6095354;28;83551;-60
2021/01/10 09:14:35;;;;;;;21.10;11.95;;;24.10;33.60;;;;;;6091250;28;83594;-60
2021/01/10 09:17:35;;;;;;;20.02;11.95;;;24.20;33.50;;;;;;6094746;28;82844;-61
2021/01/10 09:20:36;;;;;;;24.80;11.90;;;24.20;33.70;;;;;;6099447;28;83274;-61
2021/01/10 09:23:36;;;;;;;21.67;11.32;;;24.20;33.70;;;;;;6092985;28;83359;-61
2021/01/10 09:26:37;;;;;;;22.05;12.52;;;24.30;33.80;;;;;;6101891;28;83547;-60
2021/01/10 09:29:37;;;;;;;24.20;11.52;;;24.30;33.70;;;;;;6097778;28;84216;-61
2021/01/10 09:32:38;;;;;;;19.98;10.93;;;24.30;34.10;;;;;;6094920;28;83441;-63
2021/01/10 09:35:38;;;;;;;19.88;11.30;;;24.50;35.30;;;;;;6097430;28;83020;-64
2021/01/10 09:38:39;;;;;;;21.98;11.55;;;24.80;34.10;;;;;;6099366;28;83894;-65
2021/01/10 09:41:41;;;;;;;22.02;12.65;;;24.90;33.50;;;;;;6096367;28;83255;-62
2021/01/10 09:44:41;;;;;;;23.98;11.50;;;25.10;33.30;;;;;;6097131;28;83319;-61
2021/01/10 09:47:42;;;;;;;20.35;11.50;;;25.20;33.30;;;;;;6100997;28;84273;-62
2021/01/10 09:50:42;;;;;;;24.95;10.93;;;25.20;33.90;;;;;;6097006;28;83390;-62
2021/01/10 09:53:47;;;;;;;33.72;12.18;;;25.30;34.50;;;;;;6098937;28;83297;-62
2021/01/10 09:56:47;;;;;;;21.27;12.05;;;25.30;34.90;;;;;;6094560;28;82875;-62
2021/01/10 09:59:48;;;;;;;20.42;11.40;;;25.30;34.50;;;;;;6095327;28;83084;-62
2021/01/10 10:02:49;;;;;;;28.88;15.73;;;25.30;33.40;;;;;;6086304;28;83600;-61
2021/01/10 10:05:49;;;;;;;29.65;16.65;;;25.10;29.10;;;;;;6086870;28;84375;-61
2021/01/10 10:08:50;;;;;;;29.27;17.83;;;24.60;27.40;;;;;;6094033;28;85875;-62
2021/01/10 10:11:50;;;;;;;32.50;20.15;;;24.20;26.80;;;;;;6099926;28;83651;-62
2021/01/10 10:14:51;;;;;;;33.28;18.50;;;23.80;26.70;;;;;;6098766;28;83966;-61
2021/01/10 10:17:52;;;;;;;29.50;17.88;;;23.50;26.40;;;;;;6097531;28;83507;-61
2021/01/10 10:20:52;;;;;;;33.13;17.70;;;23.30;26.40;;;;;;6097412;28;83314;-61
2021/01/10 10:23:53;;;;;;;40.47;20.83;;;23.10;26.30;;;;;;6098442;28;83413;-61
2021/01/10 10:26:53;;;;;;;43.58;20.02;;;22.90;26.00;;;;;;6091691;28;83191;-61
2021/01/10 10:29:54;;;;;;;35.20;18.05;;;22.80;25.90;;;;;;6074937;28;84006;-61
2021/01/10 10:32:54;;;;;;;34.40;19.80;;;22.60;26.10;;;;;;6098015;28;83998;-59
2021/01/10 10:35:56;;;;;;;33.72;19.33;;;22.50;26.40;;;;;;6098867;28;86069;-61
2021/01/10 10:38:57;;;;;;;33.22;19.75;;;22.40;26.50;;;;;;6096075;28;84202;-62
2021/01/10 10:41:57;;;;;;;33.33;18.52;;;22.30;26.10;;;;;;6097630;28;83643;-62
2021/01/10 10:44:58;;;;;;;32.40;18.90;;;22.30;26.30;;;;;;6095601;28;83903;-61
2021/01/10 10:47:58;;;;;;;34.92;19.48;;;22.20;26.40;;;;;;6101575;28;83064;-60
2021/01/10 10:50:59;;;;;;;33.92;19.58;;;22.10;26.30;;;;;;6095771;28;83737;-61
2021/01/10 10:54:00;;;;;;;34.70;18.83;;;21.90;26.30;;;;;;6101000;28;84051;-62
2021/01/10 10:57:00;;;;;;;35.60;17.38;;;22.10;27.10;;;;;;6093795;28;83951;-62
2021/01/10 11:00:01;;;;;;;39.45;17.48;;;22.40;28.30;;;;;;6099395;28;85163;-60
2021/01/10 11:03:01;;;;;;;41.28;18.40;;;22.70;28.60;;;;;;6095038;28;86139;-60
2021/01/10 11:06:02;;;;;;;35.17;17.35;;;22.90;29.40;;;;;;6110736;28;83543;-63
2021/01/10 11:09:02;;;;;;;48.55;25.40;;;23.10;29.90;;;;;;6091363;28;83381;-61
2021/01/10 11:12:03;;;;;;;42.22;23.92;;;23.20;30.70;;;;;;6091893;28;83608;-65
2021/01/10 11:15:03;;;;;;;48.42;23.98;;;23.40;30.30;;;;;;6096481;28;83403;-62
2021/01/10 11:18:04;;;;;;;43.60;23.67;;;23.50;30.60;;;;;;6096599;28;86328;-63
2021/01/10 11:21:04;;;;;;;39.22;23.00;;;23.50;30.70;;;;;;6098527;28;83290;-63
2021/01/10 11:24:05;;;;;;;42.97;24.58;;;23.60;30.70;;;;;;6100799;28;83657;-63
2021/01/10 11:27:06;;;;;;;44.03;23.75;;;23.60;30.70;;;;;;6100596;28;83098;-62
2021/01/10 11:30:06;;;;;;;39.97;23.30;;;23.70;30.50;;;;;;6088663;28;84907;-62
2021/01/10 11:33:07;;;;;;;41.97;23.65;;;23.80;30.30;;;;;;6088675;28;83463;-62
2021/01/10 11:36:07;;;;;;;37.50;22.00;;;23.80;30.20;;;;;;6088301;28;83489;-61
2021/01/10 11:39:08;;;;;;;38.92;22.52;;;23.90;30.30;;;;;;6115400;28;85248;-62
2021/01/10 11:42:13;;;;;;;40.90;22.10;;;23.90;30.20;;;;;;6088999;28;83510;-62
2021/01/10 11:45:13;;;;;;;41.65;21.65;;;24.00;30.20;;;;;;6100818;28;84936;-62
2021/01/10 11:48:14;;;;;;;37.72;21.48;;;24.00;30.10;;;;;;6095892;28;83425;-63
2021/01/10 11:51:14;;;;;;;33.20;20.65;;;24.10;30.30;;;;;;6099307;28;83814;-62
2021/01/10 11:54:15;;;;;;;37.08;21.05;;;24.20;30.60;;;;;;6094363;28;90328;-67
2021/01/10 11:57:16;;;;;;;29.02;18.75;;;24.30;30.60;;;;;;6091688;28;88304;-63
2021/01/10 12:00:16;;;;;;;31.42;19.10;;;24.30;30.50;;;;;;6098608;28;85206;-64
2021/01/10 12:03:17;;;;;;;31.90;19.02;;;24.30;30.90;;;;;;6101652;28;84001;-65
2021/01/10 12:06:17;;;;;;;28.73;16.58;;;24.40;30.90;;;;;;6098140;28;82997;-66
2021/01/10 12:09:18;;;;;;;26.50;16.60;;;24.40;30.50;;;;;;6099457;28;84318;-63
2021/01/10 12:12:19;;;;;;;28.17;16.25;;;24.40;30.60;;;;;;6099830;28;83427;-61
2021/01/10 12:15:19;;;;;;;26.33;16.13;;;24.40;30.20;;;;;;6099745;28;83435;-62
2021/01/10 12:18:20;;;;;;;26.27;14.38;;;24.40;30.00;;;;;;6098489;28;85081;-61
2021/01/10 12:21:20;;;;;;;23.40;14.35;;;24.50;30.10;;;;;;6096469;28;83542;-62
2021/01/10 12:24:21;;;;;;;25.58;15.10;;;24.50;29.90;;;;;;6100933;28;83438;-61
2021/01/10 12:27:21;;;;;;;23.65;14.15;;;24.50;29.80;;;;;;6099204;28;85633;-61
2021/01/10 12:30:22;;;;;;;25.65;14.35;;;24.50;29.80;;;;;;6091375;28;83203;-62
2021/01/10 12:33:22;;;;;;;26.45;14.95;;;24.50;29.70;;;;;;6089702;28;84321;-63
2021/01/10 12:36:26;;;;;;;22.98;13.20;;;24.60;29.80;;;;;;6095755;28;83488;-63
2021/01/10 12:39:27;;;;;;;21.13;12.65;;;24.60;29.70;;;;;;6094382;28;83889;-63
2021/01/10 12:42:27;;;;;;;23.73;13.23;;;24.60;29.40;;;;;;6098024;28;83393;-63
2021/01/10 12:45:28;;;;;;;21.50;11.70;;;24.60;29.40;;;;;;6101004;28;83809;-63
2021/01/10 12:48:28;;;;;;;19.73;11.57;;;24.60;29.30;;;;;;6093200;28;83865;-63
2021/01/10 12:51:29;;;;;;;16.27;10.63;;;24.50;29.10;;;;;;6093969;28;83655;-63
2021/01/10 12:54:29;;;;;;;17.48;10.23;;;24.50;29.00;;;;;;6100700;28;83427;-63
2021/01/10 12:57:30;;;;;;;17.55;10.68;;;24.50;29.00;;;;;;6096864;28;93636;-62
2021/01/10 13:00:30;;;;;;;16.85;9.93;;;24.40;28.90;;;;;;6098372;28;85878;-63
2021/01/10 13:03:31;;;;;;;14.15;9.52;;;24.40;28.60;;;;;;6103750;28;88158;-63
2021/01/10 13:06:35;;;;;;;15.30;9.32;;;24.30;28.60;;;;;;6101426;28;80888;-63
2021/01/10 13:09:35;;;;;;;15.25;9.35;;;24.30;28.60;;;;;;6102349;28;81529;-62
2021/01/10 13:12:36;;;;;;;14.93;9.00;;;24.30;29.00;;;;;;6095609;28;84015;-62
2021/01/10 13:15:36;;;;;;;16.27;9.38;;;24.20;28.90;;;;;;6099691;28;80992;-63
2021/01/10 13:18:37;;;;;;;14.32;8.70;;;24.20;28.40;;;;;;6101514;28;81444;-63
2021/01/10 13:21:37;;;;;;;13.57;8.40;;;24.20;28.80;;;;;;6094006;28;81768;-62
2021/01/10 13:24:38;;;;;;;14.68;8.25;;;24.10;28.70;;;;;;6116433;28;83653;-61
2021/01/10 13:27:39;;;;;;;14.80;8.13;;;24.10;28.80;;;;;;6094517;28;80428;-62
2021/01/10 13:30:39;;;;;;;12.80;8.50;;;24.10;28.70;;;;;;6097321;28;81292;-62
2021/01/10 13:33:40;;;;;;;15.63;8.73;;;24.10;28.60;;;;;;6096405;28;82153;-62
2021/01/10 13:36:41;;;;;;;13.82;8.27;;;24.10;28.60;;;;;;6093827;28;81984;-61
2021/01/10 13:39:41;;;;;;;13.50;8.38;;;24.10;28.50;;;;;;6096707;28;83447;-61
2021/01/10 13:42:42;;;;;;;15.77;8.57;;;24.10;28.00;;;;;;6098485;28;80737;-62
2021/01/10 13:45:42;;;;;;;15.20;8.30;;;24.10;28.00;;;;;;6092862;28;80811;-63
2021/01/10 13:48:43;;;;;;;15.93;8.70;;;24.10;28.40;;;;;;6094439;28;81771;-63
2021/01/10 13:51:44;;;;;;;13.60;8.48;;;24.10;27.90;;;;;;6100244;28;80806;-61
2021/01/10 13:54:44;;;;;;;14.50;8.05;;;24.10;27.90;;;;;;6092321;28;81234;-63
2021/01/10 13:57:45;;;;;;;13.40;8.48;;;24.10;28.00;;;;;;6097929;28;81025;-63
2021/01/10 14:00:46;;;;;;;12.65;8.60;;;24.10;27.80;;;;;;6089487;28;80998;-62
2021/01/10 14:03:46;;;;;;;13.20;7.95;;;24.10;27.90;;;;;;6087599;28;81018;-63
2021/01/10 14:06:47;;;;;;;14.27;8.13;;;24.10;28.10;;;;;;6097855;28;80675;-63
2021/01/10 14:09:47;;;;;;;12.30;7.82;;;24.10;28.20;;;;;;6110014;28;80778;-63
2021/01/10 14:12:48;;;;;;;13.25;8.18;;;24.00;28.30;;;;;;6091257;28;80882;-62
2021/01/10 14:15:49;;;;;;;15.05;8.27;;;24.00;28.20;;;;;;6084494;28;80938;-61
2021/01/10 14:18:49;;;;;;;12.68;8.38;;;24.00;28.00;;;;;;6095693;28;81457;-65
2021/01/10 14:21:50;;;;;;;13.93;7.95;;;24.00;28.40;;;;;;6099812;28;85735;-62
2021/01/10 14:24:50;;;;;;;15.15;9.50;;;24.00;28.60;;;;;;6094634;28;80777;-60
2021/01/10 14:27:51;;;;;;;17.20;8.70;;;24.00;28.80;;;;;;6094433;28;81386;-63
2021/01/10 14:30:51;;;;;;;11.32;8.00;;;24.00;29.00;;;;;;6095721;28;80912;-63
2021/01/10 14:33:52;;;;;;;16.10;8.18;;;24.00;28.90;;;;;;6095938;28;80966;-61
2021/01/10 14:36:52;;;;;;;14.10;8.38;;;24.00;29.20;;;;;;6099213;28;81067;-61
2021/01/10 14:39:53;;;;;;;12.18;6.97;;;24.00;29.30;;;;;;6097378;28;81616;-61
2021/01/10 14:42:53;;;;;;;12.98;7.40;;;24.10;29.30;;;;;;6098869;28;80303;-61
2021/01/10 14:45:54;;;;;;;10.73;7.18;;;24.00;29.50;;;;;;6102664;28;80800;-61
2021/01/10 14:48:54;;;;;;;12.50;7.18;;;24.00;29.50;;;;;;6098645;28;80428;-62
2021/01/10 14:51:55;;;;;;;15.07;7.38;;;24.00;29.40;;;;;;6101065;28;86400;-62
2021/01/10 14:54:55;;;;;;;10.85;6.82;;;24.00;29.50;;;;;;6101334;28;80764;-62
2021/01/10 14:57:56;;;;;;;10.48;6.35;;;23.90;29.40;;;;;;6096764;28;80665;-61
2021/01/10 15:00:56;;;;;;;12.15;7.35;;;23.90;29.40;;;;;;6100732;28;80863;-61
2021/01/10 15:03:58;;;;;;;11.00;6.45;;;23.90;29.20;;;;;;6102604;28;81865;-62
2021/01/10 15:06:59;;;;;;;10.52;7.07;;;23.90;29.60;;;;;;6102812;28;83290;-62
2021/01/10 15:09:59;;;;;;;14.55;7.47;;;23.90;29.50;;;;;;6100343;28;80441;-62
2021/01/10 15:13:00;;;;;;;15.55;6.22;;;23.90;29.40;;;;;;6103391;28;82957;-63
2021/01/10 15:16:01;;;;;;;15.82;8.05;;;23.80;29.60;;;;;;6115084;28;80845;-63